Mark Shell — WDI7434 — position and weather

sailwx.info

Track history (hours):
 
Tides and Currents Weather Stations Pressure Air Temp Water Temp Dewpoint Dewpoint Depression Visibility Wind Speed Wind Dir Waves Ship Positions

Mark Shell

Owner: Kirby Inland Marine LP, Houston, TX. More information available from US FCC via Universal Licensing System and Coast Guard Vessel Documentation Center.

Last reported at 2017-Sep-21 14:36 UTC. Time now 2017-Sep-26 02:16 UTC.
Position N 31°49' W 091°22'.

Length 335 m; draft 3 m.

Type: . MMSI: 367728680.

Date/timePositionNaut miles runAvg speedWind from/ knotsBaromVisibWave heightAir tempDewpointWater temp
2017-Sep-21 14:36N 31°49' W 091°22'0 0.0
2017-Sep-21 14:26N 31°49' W 091°22'0 0.0
2017-Sep-21 13:45N 31°49' W 091°22'0 0.0
2017-Sep-21 13:30N 31°49' W 091°22'0 0.6
2017-Sep-21 12:59N 31°48' W 091°22'0 0.1
2017-Sep-21 12:27N 31°48' W 091°22'0 0.5
2017-Sep-21 11:57N 31°49' W 091°21'0 0.1
2017-Sep-21 11:02N 31°49' W 091°22'0 0.0
2017-Sep-21 10:28N 31°49' W 091°22'0 0.0
2017-Sep-21 09:46N 31°49' W 091°22'0 0.0
2017-Sep-21 09:30N 31°49' W 091°22'0 0.0
2017-Sep-21 08:51N 31°49' W 091°22'0 0.0
2017-Sep-21 08:18N 31°49' W 091°22'0 0.0
2017-Sep-20 14:52N 31°49' W 091°22'0 0.0
2017-Sep-20 13:58N 31°49' W 091°22'0 0.0
2017-Sep-20 13:30N 31°49' W 091°22'0 0.0
2017-Sep-20 13:00N 31°49' W 091°22'0 0.0
2017-Sep-20 11:48N 31°49' W 091°22'0 0.1
2017-Sep-20 11:29N 31°49' W 091°22'0 0.0
2017-Sep-20 11:00N 31°49' W 091°22'0 0.0
2017-Sep-20 10:17N 31°49' W 091°22'0 0.0
2017-Sep-20 08:05N 31°49' W 091°22'  
2017-Sep-15 19:07N 31°57' W 091°11'6 7.5
2017-Sep-15 18:21N 31°60' W 091°05'3 8.1
2017-Sep-15 18:01N 32°02' W 091°04'4 7.8
2017-Sep-15 17:28N 32°06' W 091°06'4 5.6
2017-Sep-15 16:49N 32°07' W 091°02'3 8.4
2017-Sep-15 16:30N 32°09' W 091°00'4 8.8
2017-Sep-15 16:01N 32°14' W 090°59'4 8.9
2017-Sep-15 15:31N 32°17' W 090°56'3 6.7
2017-Sep-15 15:01N 32°20' W 090°55'4 7.7
2017-Sep-15 14:31N 32°21' W 090°59'3 6.4
2017-Sep-15 14:00N 32°24' W 090°59'4 8.5
2017-Sep-15 13:31N 32°26' W 091°04'4 8.3
2017-Sep-15 13:01N 32°29' W 091°07'0 0.1
2017-Sep-15 12:30N 32°29' W 091°07'0 0.0
2017-Sep-15 12:01N 32°29' W 091°07'0 0.0
2017-Sep-15 11:31N 32°29' W 091°07'0 0.4
2017-Sep-15 11:01N 32°29' W 091°07'0 0.6
2017-Sep-15 10:31N 32°30' W 091°07'0 0.0
2017-Sep-15 10:00N 32°30' W 091°07'0 0.0
2017-Sep-15 09:30N 32°30' W 091°07'0 0.0
2017-Sep-15 09:01N 32°30' W 091°07'0 0.0
2017-Sep-15 08:30N 32°30' W 091°07'0 0.0
2017-Sep-15 08:01N 32°30' W 091°07'0 0.0
2017-Sep-15 07:31N 32°30' W 091°07'0 0.0
2017-Sep-15 07:01N 32°30' W 091°07'0 0.0
2017-Sep-15 06:31N 32°30' W 091°07'0 0.0
2017-Sep-15 06:01N 32°30' W 091°07'0 0.0
2017-Sep-15 05:31N 32°30' W 091°07'0 0.0
2017-Sep-15 05:01N 32°30' W 091°07'0 0.0
2017-Sep-15 04:30N 32°30' W 091°07'0 0.0
2017-Sep-15 04:00N 32°30' W 091°07'0 0.0
2017-Sep-15 03:30N 32°30' W 091°07'0 0.0
2017-Sep-15 03:00N 32°30' W 091°07'0 0.0
2017-Sep-15 02:31N 32°30' W 091°07'0 0.0
2017-Sep-15 02:00N 32°30' W 091°07'0 0.0
2017-Sep-15 01:31N 32°30' W 091°07'0 0.0
2017-Sep-15 01:01N 32°30' W 091°07'0 0.0
2017-Sep-15 00:31N 32°30' W 091°07'0 0.0
2017-Sep-15 00:00N 32°30' W 091°07'0 0.0
2017-Sep-14 23:30N 32°30' W 091°07'0 0.0
2017-Sep-14 23:01N 32°30' W 091°07'0 0.0
2017-Sep-14 22:31N 32°30' W 091°07'1 1.3
2017-Sep-14 22:00N 32°29' W 091°07'0 0.0
2017-Sep-14 21:31N 32°29' W 091°07'0 0.0
2017-Sep-14 21:01N 32°29' W 091°07'0 0.0
2017-Sep-14 20:31N 32°29' W 091°07'0 0.0
2017-Sep-14 20:01N 32°29' W 091°07'0 0.0
2017-Sep-14 19:31N 32°29' W 091°07'0 0.0
2017-Sep-14 19:01N 32°29' W 091°07'0 0.0
2017-Sep-14 18:31N 32°29' W 091°07'0 0.1
2017-Sep-14 18:01N 32°29' W 091°07'0 0.0
2017-Sep-14 17:30N 32°29' W 091°07'0 0.0
2017-Sep-14 17:00N 32°29' W 091°07'0 0.0
2017-Sep-14 16:30N 32°29' W 091°07'0 0.0
2017-Sep-14 16:01N 32°29' W 091°07'0 0.1
2017-Sep-14 15:31N 32°29' W 091°07'0 0.2
2017-Sep-14 15:01N 32°29' W 091°07'0 0.0
2017-Sep-14 14:30N 32°29' W 091°07'0 0.0
2017-Sep-14 14:01N 32°29' W 091°07'0 0.0
2017-Sep-14 13:31N 32°29' W 091°07'0 0.0
2017-Sep-14 13:00N 32°29' W 091°07'0 0.0
2017-Sep-14 12:31N 32°29' W 091°07'0 0.7
2017-Sep-14 12:01N 32°30' W 091°07'0 0.4
2017-Sep-14 11:31N 32°30' W 091°07'0 0.0
2017-Sep-14 11:01N 32°30' W 091°07'0 0.0
2017-Sep-14 10:31N 32°30' W 091°07'0 0.0
2017-Sep-14 10:01N 32°30' W 091°07'0 0.0
2017-Sep-14 09:30N 32°30' W 091°07'0 0.0
2017-Sep-14 09:01N 32°30' W 091°07'0 0.0
2017-Sep-14 08:31N 32°30' W 091°07'0 0.0
2017-Sep-14 08:01N 32°30' W 091°07'0 0.0
2017-Sep-14 07:31N 32°30' W 091°07'0 0.0
2017-Sep-14 07:01N 32°30' W 091°07'0 0.0
2017-Sep-14 06:31N 32°30' W 091°07'0 0.0
2017-Sep-14 06:01N 32°30' W 091°07'0 0.0
2017-Sep-14 05:31N 32°30' W 091°07'0 0.0
2017-Sep-14 05:01N 32°30' W 091°07'0 0.0
2017-Sep-14 04:31N 32°30' W 091°07'0 0.0
2017-Sep-14 04:00N 32°30' W 091°07'0 0.0
2017-Sep-14 03:31N 32°30' W 091°07'0 0.0
2017-Sep-14 03:00N 32°30' W 091°07'0 0.0
2017-Sep-14 02:31N 32°30' W 091°07'0 0.0
2017-Sep-14 02:00N 32°30' W 091°07'0 0.0
2017-Sep-14 01:30N 32°30' W 091°07'0 0.0
2017-Sep-14 01:00N 32°30' W 091°07'0 0.1
2017-Sep-14 00:31N 32°30' W 091°07'0 0.6
2017-Sep-14 00:01N 32°29' W 091°07'0 0.7
2017-Sep-13 23:31N 32°29' W 091°07'0 0.0
2017-Sep-13 23:01N 32°29' W 091°07'0 0.0
2017-Sep-13 22:31N 32°29' W 091°07'0 0.0
2017-Sep-13 22:00N 32°29' W 091°07'0 0.0
2017-Sep-13 21:31N 32°29' W 091°07'0 0.0
2017-Sep-13 21:01N 32°29' W 091°07'0 0.0
2017-Sep-13 20:31N 32°29' W 091°07'0 0.0
2017-Sep-13 20:01N 32°29' W 091°07'0 0.0
2017-Sep-13 19:30N 32°29' W 091°07'0 0.0
2017-Sep-13 19:01N 32°29' W 091°07'0 0.0
2017-Sep-13 18:31N 32°29' W 091°07'0 0.0
2017-Sep-13 18:01N 32°29' W 091°07'0 0.0
2017-Sep-13 17:31N 32°29' W 091°07'0 0.0
2017-Sep-13 17:01N 32°29' W 091°07'0 0.0
2017-Sep-13 16:31N 32°29' W 091°07'0 0.0
2017-Sep-13 16:01N 32°29' W 091°07'0 0.1
2017-Sep-13 15:31N 32°29' W 091°07'0 0.0
2017-Sep-13 15:01N 32°29' W 091°07'0 0.0
2017-Sep-13 14:30N 32°29' W 091°07'0 0.0
2017-Sep-13 14:01N 32°29' W 091°07'0 0.0
2017-Sep-13 13:31N 32°29' W 091°07'0 0.0
2017-Sep-13 13:01N 32°29' W 091°07'0 0.0
2017-Sep-13 12:30N 32°29' W 091°07'0 0.0
2017-Sep-13 12:00N 32°29' W 091°07'0 0.0
2017-Sep-13 11:30N 32°29' W 091°07'0 0.0
2017-Sep-13 11:01N 32°29' W 091°07'0 0.8
2017-Sep-13 10:31N 32°29' W 091°07'0 0.6
2017-Sep-13 10:00N 32°29' W 091°07'0 0.5
2017-Sep-13 09:31N 32°28' W 091°07'0 0.0
2017-Sep-13 09:01N 32°28' W 091°07'0 0.0
2017-Sep-13 08:31N 32°28' W 091°07'0 0.0
2017-Sep-13 08:01N 32°28' W 091°07'0 0.0
2017-Sep-13 07:30N 32°28' W 091°07'0 0.0
2017-Sep-13 07:01N 32°28' W 091°07'0 0.0
2017-Sep-13 06:31N 32°28' W 091°07'0 0.0
2017-Sep-13 06:01N 32°28' W 091°07'0 0.0
2017-Sep-13 05:30N 32°28' W 091°07'0 0.0
2017-Sep-13 05:01N 32°28' W 091°07'0 0.0
2017-Sep-13 04:31N 32°28' W 091°07'0 0.0
2017-Sep-13 04:01N 32°28' W 091°07'0 0.0
2017-Sep-13 03:31N 32°28' W 091°07'0 0.0
2017-Sep-13 03:01N 32°28' W 091°07'0 0.0
2017-Sep-13 02:30N 32°28' W 091°07'0 0.0
2017-Sep-13 02:01N 32°28' W 091°07'0 0.4
2017-Sep-13 01:30N 32°28' W 091°06'2 4.1
2017-Sep-13 01:01N 32°27' W 091°05'3 6.6
2017-Sep-13 00:31N 32°26' W 091°01'3 5.2
2017-Sep-13 00:01N 32°23' W 090°60'2 4.7
2017-Sep-12 23:31N 32°21' W 090°59'1 1.9
2017-Sep-12 23:00N 32°21' W 090°58'3 5.5
2017-Sep-12 22:30N 32°20' W 090°54'2 4.5
2017-Sep-12 22:00N 32°18' W 090°55'2 3.8
2017-Sep-12 21:31N 32°17' W 090°57'3 5.7
2017-Sep-12 21:00N 32°15' W 090°59'3 6.2
2017-Sep-12 20:30N 32°12' W 090°59'3 6.2
2017-Sep-12 20:01N 32°09' W 091°00'2 4.7
2017-Sep-12 19:31N 32°07' W 091°03'3 5.0
2017-Sep-12 19:00N 32°08' W 091°05'5 5.0
2017-Sep-12 17:56N 32°03' W 091°04'3 6.8
2017-Sep-12 17:30N 32°00' W 091°05'  
Track history (hours):
 
Tides and Currents Weather Stations Pressure Air Temp Water Temp Dewpoint Dewpoint Depression Visibility Wind Speed Wind Dir Waves Ship Positions

Mark Shell

Owner: Kirby Inland Marine LP, Houston, TX. More information available from US FCC via Universal Licensing System and Coast Guard Vessel Documentation Center.

Last reported at 2017-Sep-21 14:36 UTC. Time now 2017-Sep-26 02:16 UTC.
Position N 31°49' W 091°22'.

Length 335 m; draft 3 m.

Type: . MMSI: 367728680.

Date/timePositionNaut miles runAvg speedWind from/ knotsBaromVisibWave heightAir tempDewpointWater temp
2017-Sep-21 14:36N 31°49' W 091°22'0 0.0
2017-Sep-21 14:26N 31°49' W 091°22'0 0.0
2017-Sep-21 13:45N 31°49' W 091°22'0 0.0
2017-Sep-21 13:30N 31°49' W 091°22'0 0.6
2017-Sep-21 12:59N 31°48' W 091°22'0 0.1
2017-Sep-21 12:27N 31°48' W 091°22'0 0.5
2017-Sep-21 11:57N 31°49' W 091°21'0 0.1
2017-Sep-21 11:02N 31°49' W 091°22'0 0.0
2017-Sep-21 10:28N 31°49' W 091°22'0 0.0
2017-Sep-21 09:46N 31°49' W 091°22'0 0.0
2017-Sep-21 09:30N 31°49' W 091°22'0 0.0
2017-Sep-21 08:51N 31°49' W 091°22'0 0.0
2017-Sep-21 08:18N 31°49' W 091°22'0 0.0
2017-Sep-20 14:52N 31°49' W 091°22'0 0.0
2017-Sep-20 13:58N 31°49' W 091°22'0 0.0
2017-Sep-20 13:30N 31°49' W 091°22'0 0.0
2017-Sep-20 13:00N 31°49' W 091°22'0 0.0
2017-Sep-20 11:48N 31°49' W 091°22'0 0.1
2017-Sep-20 11:29N 31°49' W 091°22'0 0.0
2017-Sep-20 11:00N 31°49' W 091°22'0 0.0
2017-Sep-20 10:17N 31°49' W 091°22'0 0.0
2017-Sep-20 08:05N 31°49' W 091°22'  
2017-Sep-15 19:07N 31°57' W 091°11'6 7.5
2017-Sep-15 18:21N 31°60' W 091°05'3 8.1
2017-Sep-15 18:01N 32°02' W 091°04'4 7.8
2017-Sep-15 17:28N 32°06' W 091°06'4 5.6
2017-Sep-15 16:49N 32°07' W 091°02'3 8.4
2017-Sep-15 16:30N 32°09' W 091°00'4 8.8
2017-Sep-15 16:01N 32°14' W 090°59'4 8.9
2017-Sep-15 15:31N 32°17' W 090°56'3 6.7
2017-Sep-15 15:01N 32°20' W 090°55'4 7.7
2017-Sep-15 14:31N 32°21' W 090°59'3 6.4
2017-Sep-15 14:00N 32°24' W 090°59'4 8.5
2017-Sep-15 13:31N 32°26' W 091°04'4 8.3
2017-Sep-15 13:01N 32°29' W 091°07'0 0.1
2017-Sep-15 12:30N 32°29' W 091°07'0 0.0
2017-Sep-15 12:01N 32°29' W 091°07'0 0.0
2017-Sep-15 11:31N 32°29' W 091°07'0 0.4
2017-Sep-15 11:01N 32°29' W 091°07'0 0.6
2017-Sep-15 10:31N 32°30' W 091°07'0 0.0
2017-Sep-15 10:00N 32°30' W 091°07'0 0.0
2017-Sep-15 09:30N 32°30' W 091°07'0 0.0
2017-Sep-15 09:01N 32°30' W 091°07'0 0.0
2017-Sep-15 08:30N 32°30' W 091°07'0 0.0
2017-Sep-15 08:01N 32°30' W 091°07'0 0.0
2017-Sep-15 07:31N 32°30' W 091°07'0 0.0
2017-Sep-15 07:01N 32°30' W 091°07'0 0.0
2017-Sep-15 06:31N 32°30' W 091°07'0 0.0
2017-Sep-15 06:01N 32°30' W 091°07'0 0.0
2017-Sep-15 05:31N 32°30' W 091°07'0 0.0
2017-Sep-15 05:01N 32°30' W 091°07'0 0.0
2017-Sep-15 04:30N 32°30' W 091°07'0 0.0
2017-Sep-15 04:00N 32°30' W 091°07'0 0.0
2017-Sep-15 03:30N 32°30' W 091°07'0 0.0
2017-Sep-15 03:00N 32°30' W 091°07'0 0.0
2017-Sep-15 02:31N 32°30' W 091°07'0 0.0
2017-Sep-15 02:00N 32°30' W 091°07'0 0.0
2017-Sep-15 01:31N 32°30' W 091°07'0 0.0
2017-Sep-15 01:01N 32°30' W 091°07'0 0.0
2017-Sep-15 00:31N 32°30' W 091°07'0 0.0
2017-Sep-15 00:00N 32°30' W 091°07'0 0.0
2017-Sep-14 23:30N 32°30' W 091°07'0 0.0
2017-Sep-14 23:01N 32°30' W 091°07'0 0.0
2017-Sep-14 22:31N 32°30' W 091°07'1 1.3
2017-Sep-14 22:00N 32°29' W 091°07'0 0.0
2017-Sep-14 21:31N 32°29' W 091°07'0 0.0
2017-Sep-14 21:01N 32°29' W 091°07'0 0.0
2017-Sep-14 20:31N 32°29' W 091°07'0 0.0
2017-Sep-14 20:01N 32°29' W 091°07'0 0.0
2017-Sep-14 19:31N 32°29' W 091°07'0 0.0
2017-Sep-14 19:01N 32°29' W 091°07'0 0.0
2017-Sep-14 18:31N 32°29' W 091°07'0 0.1
2017-Sep-14 18:01N 32°29' W 091°07'0 0.0
2017-Sep-14 17:30N 32°29' W 091°07'0 0.0
2017-Sep-14 17:00N 32°29' W 091°07'0 0.0
2017-Sep-14 16:30N 32°29' W 091°07'0 0.0
2017-Sep-14 16:01N 32°29' W 091°07'0 0.1
2017-Sep-14 15:31N 32°29' W 091°07'0 0.2
2017-Sep-14 15:01N 32°29' W 091°07'0 0.0
2017-Sep-14 14:30N 32°29' W 091°07'0 0.0
2017-Sep-14 14:01N 32°29' W 091°07'0 0.0
2017-Sep-14 13:31N 32°29' W 091°07'0 0.0
2017-Sep-14 13:00N 32°29' W 091°07'0 0.0
2017-Sep-14 12:31N 32°29' W 091°07'0 0.7
2017-Sep-14 12:01N 32°30' W 091°07'0 0.4
2017-Sep-14 11:31N 32°30' W 091°07'0 0.0
2017-Sep-14 11:01N 32°30' W 091°07'0 0.0
2017-Sep-14 10:31N 32°30' W 091°07'0 0.0
2017-Sep-14 10:01N 32°30' W 091°07'0 0.0
2017-Sep-14 09:30N 32°30' W 091°07'0 0.0
2017-Sep-14 09:01N 32°30' W 091°07'0 0.0
2017-Sep-14 08:31N 32°30' W 091°07'0 0.0
2017-Sep-14 08:01N 32°30' W 091°07'0 0.0
2017-Sep-14 07:31N 32°30' W 091°07'0 0.0
2017-Sep-14 07:01N 32°30' W 091°07'0 0.0
2017-Sep-14 06:31N 32°30' W 091°07'0 0.0
2017-Sep-14 06:01N 32°30' W 091°07'0 0.0
2017-Sep-14 05:31N 32°30' W 091°07'0 0.0
2017-Sep-14 05:01N 32°30' W 091°07'0 0.0
2017-Sep-14 04:31N 32°30' W 091°07'0 0.0
2017-Sep-14 04:00N 32°30' W 091°07'0 0.0
2017-Sep-14 03:31N 32°30' W 091°07'0 0.0
2017-Sep-14 03:00N 32°30' W 091°07'0 0.0
2017-Sep-14 02:31N 32°30' W 091°07'0 0.0
2017-Sep-14 02:00N 32°30' W 091°07'0 0.0
2017-Sep-14 01:30N 32°30' W 091°07'0 0.0
2017-Sep-14 01:00N 32°30' W 091°07'0 0.1
2017-Sep-14 00:31N 32°30' W 091°07'0 0.6
2017-Sep-14 00:01N 32°29' W 091°07'0 0.7
2017-Sep-13 23:31N 32°29' W 091°07'0 0.0
2017-Sep-13 23:01N 32°29' W 091°07'0 0.0
2017-Sep-13 22:31N 32°29' W 091°07'0 0.0
2017-Sep-13 22:00N 32°29' W 091°07'0 0.0
2017-Sep-13 21:31N 32°29' W 091°07'0 0.0
2017-Sep-13 21:01N 32°29' W 091°07'0 0.0
2017-Sep-13 20:31N 32°29' W 091°07'0 0.0
2017-Sep-13 20:01N 32°29' W 091°07'0 0.0
2017-Sep-13 19:30N 32°29' W 091°07'0 0.0
2017-Sep-13 19:01N 32°29' W 091°07'0 0.0
2017-Sep-13 18:31N 32°29' W 091°07'0 0.0
2017-Sep-13 18:01N 32°29' W 091°07'0 0.0
2017-Sep-13 17:31N 32°29' W 091°07'0 0.0
2017-Sep-13 17:01N 32°29' W 091°07'0 0.0
2017-Sep-13 16:31N 32°29' W 091°07'0 0.0
2017-Sep-13 16:01N 32°29' W 091°07'0 0.1
2017-Sep-13 15:31N 32°29' W 091°07'0 0.0
2017-Sep-13 15:01N 32°29' W 091°07'0 0.0
2017-Sep-13 14:30N 32°29' W 091°07'0 0.0
2017-Sep-13 14:01N 32°29' W 091°07'0 0.0
2017-Sep-13 13:31N 32°29' W 091°07'0 0.0
2017-Sep-13 13:01N 32°29' W 091°07'0 0.0
2017-Sep-13 12:30N 32°29' W 091°07'0 0.0
2017-Sep-13 12:00N 32°29' W 091°07'0 0.0
2017-Sep-13 11:30N 32°29' W 091°07'0 0.0
2017-Sep-13 11:01N 32°29' W 091°07'0 0.8
2017-Sep-13 10:31N 32°29' W 091°07'0 0.6
2017-Sep-13 10:00N 32°29' W 091°07'0 0.5
2017-Sep-13 09:31N 32°28' W 091°07'0 0.0
2017-Sep-13 09:01N 32°28' W 091°07'0 0.0
2017-Sep-13 08:31N 32°28' W 091°07'0 0.0
2017-Sep-13 08:01N 32°28' W 091°07'0 0.0
2017-Sep-13 07:30N 32°28' W 091°07'0 0.0
2017-Sep-13 07:01N 32°28' W 091°07'0 0.0
2017-Sep-13 06:31N 32°28' W 091°07'0 0.0
2017-Sep-13 06:01N 32°28' W 091°07'0 0.0
2017-Sep-13 05:30N 32°28' W 091°07'0 0.0
2017-Sep-13 05:01N 32°28' W 091°07'0 0.0
2017-Sep-13 04:31N 32°28' W 091°07'0 0.0
2017-Sep-13 04:01N 32°28' W 091°07'0 0.0
2017-Sep-13 03:31N 32°28' W 091°07'0 0.0
2017-Sep-13 03:01N 32°28' W 091°07'0 0.0
2017-Sep-13 02:30N 32°28' W 091°07'0 0.0
2017-Sep-13 02:01N 32°28' W 091°07'0 0.4
2017-Sep-13 01:30N 32°28' W 091°06'2 4.1
2017-Sep-13 01:01N 32°27' W 091°05'3 6.6
2017-Sep-13 00:31N 32°26' W 091°01'3 5.2
2017-Sep-13 00:01N 32°23' W 090°60'2 4.7
2017-Sep-12 23:31N 32°21' W 090°59'1 1.9
2017-Sep-12 23:00N 32°21' W 090°58'3 5.5
2017-Sep-12 22:30N 32°20' W 090°54'2 4.5
2017-Sep-12 22:00N 32°18' W 090°55'2 3.8
2017-Sep-12 21:31N 32°17' W 090°57'3 5.7
2017-Sep-12 21:00N 32°15' W 090°59'3 6.2
2017-Sep-12 20:30N 32°12' W 090°59'3 6.2
2017-Sep-12 20:01N 32°09' W 091°00'2 4.7
2017-Sep-12 19:31N 32°07' W 091°03'3 5.0
2017-Sep-12 19:00N 32°08' W 091°05'5 5.0
2017-Sep-12 17:56N 32°03' W 091°04'3 6.8
2017-Sep-12 17:30N 32°00' W 091°05'  

Dump ship's entire track history